sensor_id;sensor_type;location;lat;lon;timestamp;P1;durP1;ratioP1;P2;durP2;ratioP2
84695;SDS011;74913;40.204;44.532;2024-02-28T00:01:02;16.25;;;5.47;;
84695;SDS011;74913;40.204;44.532;2024-02-28T00:03:27;14.55;;;5.70;;
84695;SDS011;74913;40.204;44.532;2024-02-28T00:05:53;15.02;;;6.43;;
84695;SDS011;74913;40.204;44.532;2024-02-28T00:08:19;17.42;;;6.85;;
84695;SDS011;74913;40.204;44.532;2024-02-28T00:10:45;24.63;;;6.63;;
84695;SDS011;74913;40.204;44.532;2024-02-28T00:13:11;18.10;;;7.28;;
84695;SDS011;74913;40.204;44.532;2024-02-28T00:15:37;16.40;;;5.78;;
84695;SDS011;74913;40.204;44.532;2024-02-28T00:18:02;19.42;;;7.15;;
84695;SDS011;74913;40.204;44.532;2024-02-28T00:20:28;13.30;;;6.90;;
84695;SDS011;74913;40.204;44.532;2024-02-28T00:22:54;17.92;;;7.82;;
84695;SDS011;74913;40.204;44.532;2024-02-28T00:25:20;19.75;;;7.53;;
84695;SDS011;74913;40.204;44.532;2024-02-28T00:27:46;12.32;;;5.47;;
84695;SDS011;74913;40.204;44.532;2024-02-28T00:30:11;13.85;;;6.57;;
84695;SDS011;74913;40.204;44.532;2024-02-28T00:32:37;17.17;;;7.40;;
84695;SDS011;74913;40.204;44.532;2024-02-28T00:35:03;16.42;;;7.50;;
84695;SDS011;74913;40.204;44.532;2024-02-28T00:37:29;17.17;;;6.90;;
84695;SDS011;74913;40.204;44.532;2024-02-28T00:39:55;15.32;;;7.13;;
84695;SDS011;74913;40.204;44.532;2024-02-28T00:42:21;21.55;;;7.38;;
84695;SDS011;74913;40.204;44.532;2024-02-28T00:44:47;19.10;;;6.53;;
84695;SDS011;74913;40.204;44.532;2024-02-28T00:47:13;16.98;;;6.35;;
84695;SDS011;74913;40.204;44.532;2024-02-28T00:49:38;16.42;;;6.68;;
84695;SDS011;74913;40.204;44.532;2024-02-28T00:52:05;18.50;;;6.82;;
84695;SDS011;74913;40.204;44.532;2024-02-28T00:54:30;10.98;;;6.32;;
84695;SDS011;74913;40.204;44.532;2024-02-28T00:56:56;19.23;;;7.10;;
84695;SDS011;74913;40.204;44.532;2024-02-28T00:59:22;21.13;;;6.53;;
84695;SDS011;74913;40.204;44.532;2024-02-28T01:01:50;18.30;;;6.93;;
84695;SDS011;74913;40.204;44.532;2024-02-28T01:04:16;13.30;;;6.30;;
84695;SDS011;74913;40.204;44.532;2024-02-28T01:06:42;13.73;;;4.95;;
84695;SDS011;74913;40.204;44.532;2024-02-28T01:09:08;16.27;;;5.38;;
84695;SDS011;74913;40.204;44.532;2024-02-28T01:11:33;8.73;;;4.32;;
84695;SDS011;74913;40.204;44.532;2024-02-28T01:13:59;11.38;;;5.75;;
84695;SDS011;74913;40.204;44.532;2024-02-28T01:16:25;15.05;;;5.85;;
84695;SDS011;74913;40.204;44.532;2024-02-28T01:18:51;14.68;;;5.03;;
84695;SDS011;74913;40.204;44.532;2024-02-28T01:21:16;12.18;;;5.70;;
84695;SDS011;74913;40.204;44.532;2024-02-28T01:23:42;22.25;;;7.35;;
84695;SDS011;74913;40.204;44.532;2024-02-28T01:26:08;18.48;;;6.55;;
84695;SDS011;74913;40.204;44.532;2024-02-28T01:28:33;16.63;;;6.30;;
84695;SDS011;74913;40.204;44.532;2024-02-28T01:30:59;15.88;;;5.28;;
84695;SDS011;74913;40.204;44.532;2024-02-28T01:33:25;19.70;;;6.97;;
84695;SDS011;74913;40.204;44.532;2024-02-28T01:35:51;14.50;;;6.38;;
84695;SDS011;74913;40.204;44.532;2024-02-28T01:38:16;12.05;;;4.80;;
84695;SDS011;74913;40.204;44.532;2024-02-28T01:40:45;14.90;;;6.30;;
84695;SDS011;74913;40.204;44.532;2024-02-28T01:43:11;15.48;;;6.20;;
84695;SDS011;74913;40.204;44.532;2024-02-28T01:45:37;13.23;;;6.20;;
84695;SDS011;74913;40.204;44.532;2024-02-28T01:48:03;22.48;;;7.03;;
84695;SDS011;74913;40.204;44.532;2024-02-28T01:50:31;12.88;;;5.90;;
84695;SDS011;74913;40.204;44.532;2024-02-28T01:52:58;19.30;;;7.95;;
84695;SDS011;74913;40.204;44.532;2024-02-28T01:57:51;14.95;;;6.65;;
84695;SDS011;74913;40.204;44.532;2024-02-28T02:00:17;15.55;;;6.60;;
84695;SDS011;74913;40.204;44.532;2024-02-28T02:02:44;18.63;;;6.65;;
84695;SDS011;74913;40.204;44.532;2024-02-28T02:05:10;14.98;;;7.03;;
84695;SDS011;74913;40.204;44.532;2024-02-28T02:07:35;19.92;;;8.48;;
84695;SDS011;74913;40.204;44.532;2024-02-28T02:10:01;18.30;;;7.05;;
84695;SDS011;74913;40.204;44.532;2024-02-28T02:12:27;25.67;;;8.55;;
84695;SDS011;74913;40.204;44.532;2024-02-28T02:14:52;24.65;;;9.13;;
84695;SDS011;74913;40.204;44.532;2024-02-28T02:17:18;26.33;;;8.63;;
84695;SDS011;74913;40.204;44.532;2024-02-28T02:19:44;23.80;;;6.90;;
84695;SDS011;74913;40.204;44.532;2024-02-28T02:22:10;28.90;;;9.75;;
84695;SDS011;74913;40.204;44.532;2024-02-28T02:24:39;23.65;;;8.40;;
84695;SDS011;74913;40.204;44.532;2024-02-28T02:27:05;24.65;;;9.27;;
84695;SDS011;74913;40.204;44.532;2024-02-28T02:29:31;22.63;;;9.38;;
84695;SDS011;74913;40.204;44.532;2024-02-28T02:31:57;23.17;;;8.13;;
84695;SDS011;74913;40.204;44.532;2024-02-28T02:34:22;21.13;;;8.00;;
84695;SDS011;74913;40.204;44.532;2024-02-28T02:36:48;19.13;;;8.00;;
84695;SDS011;74913;40.204;44.532;2024-02-28T02:39:13;23.40;;;8.65;;
84695;SDS011;74913;40.204;44.532;2024-02-28T02:41:39;17.98;;;8.13;;
84695;SDS011;74913;40.204;44.532;2024-02-28T02:44:06;17.20;;;7.15;;
84695;SDS011;74913;40.204;44.532;2024-02-28T02:46:33;18.85;;;7.63;;
84695;SDS011;74913;40.204;44.532;2024-02-28T02:48:58;19.55;;;7.60;;
84695;SDS011;74913;40.204;44.532;2024-02-28T02:51:24;15.05;;;6.13;;
84695;SDS011;74913;40.204;44.532;2024-02-28T02:53:50;21.27;;;7.13;;
84695;SDS011;74913;40.204;44.532;2024-02-28T02:56:16;19.23;;;6.93;;
84695;SDS011;74913;40.204;44.532;2024-02-28T02:58:42;24.15;;;8.25;;
84695;SDS011;74913;40.204;44.532;2024-02-28T03:01:07;22.95;;;7.93;;
84695;SDS011;74913;40.204;44.532;2024-02-28T03:03:34;21.52;;;7.40;;
84695;SDS011;74913;40.204;44.532;2024-02-28T03:06:00;22.02;;;7.30;;
84695;SDS011;74913;40.204;44.532;2024-02-28T03:08:25;23.92;;;7.40;;
84695;SDS011;74913;40.204;44.532;2024-02-28T03:10:51;17.83;;;7.40;;
84695;SDS011;74913;40.204;44.532;2024-02-28T03:13:17;16.30;;;6.35;;
84695;SDS011;74913;40.204;44.532;2024-02-28T03:15:43;20.08;;;6.80;;
84695;SDS011;74913;40.204;44.532;2024-02-28T03:18:09;16.23;;;6.60;;
84695;SDS011;74913;40.204;44.532;2024-02-28T03:20:35;18.08;;;6.95;;
84695;SDS011;74913;40.204;44.532;2024-02-28T03:23:03;17.50;;;6.05;;
84695;SDS011;74913;40.204;44.532;2024-02-28T03:25:31;20.60;;;6.50;;
84695;SDS011;74913;40.204;44.532;2024-02-28T03:27:57;11.35;;;5.72;;
84695;SDS011;74913;40.204;44.532;2024-02-28T03:30:24;18.95;;;6.80;;
84695;SDS011;74913;40.204;44.532;2024-02-28T03:32:50;15.00;;;6.75;;
84695;SDS011;74913;40.204;44.532;2024-02-28T03:35:16;16.67;;;6.22;;
84695;SDS011;74913;40.204;44.532;2024-02-28T03:37:42;15.65;;;5.70;;
84695;SDS011;74913;40.204;44.532;2024-02-28T03:40:07;14.82;;;6.70;;
84695;SDS011;74913;40.204;44.532;2024-02-28T03:42:33;17.17;;;6.63;;
84695;SDS011;74913;40.204;44.532;2024-02-28T03:44:59;13.13;;;5.70;;
84695;SDS011;74913;40.204;44.532;2024-02-28T03:47:24;13.32;;;5.72;;
84695;SDS011;74913;40.204;44.532;2024-02-28T03:49:50;16.33;;;5.75;;
84695;SDS011;74913;40.204;44.532;2024-02-28T03:52:16;19.00;;;5.55;;
84695;SDS011;74913;40.204;44.532;2024-02-28T03:54:45;12.38;;;4.88;;
84695;SDS011;74913;40.204;44.532;2024-02-28T03:57:10;19.40;;;5.68;;
84695;SDS011;74913;40.204;44.532;2024-02-28T03:59:36;11.18;;;4.57;;
84695;SDS011;74913;40.204;44.532;2024-02-28T04:02:02;10.23;;;4.68;;
84695;SDS011;74913;40.204;44.532;2024-02-28T04:04:27;14.25;;;4.97;;
84695;SDS011;74913;40.204;44.532;2024-02-28T04:06:53;16.17;;;6.35;;
84695;SDS011;74913;40.204;44.532;2024-02-28T04:09:19;16.40;;;6.30;;
84695;SDS011;74913;40.204;44.532;2024-02-28T04:11:45;13.63;;;5.55;;
84695;SDS011;74913;40.204;44.532;2024-02-28T04:14:11;15.80;;;5.57;;
84695;SDS011;74913;40.204;44.532;2024-02-28T04:16:40;14.55;;;6.10;;
84695;SDS011;74913;40.204;44.532;2024-02-28T04:19:09;20.23;;;7.32;;
84695;SDS011;74913;40.204;44.532;2024-02-28T04:21:34;19.15;;;6.75;;
84695;SDS011;74913;40.204;44.532;2024-02-28T04:24:00;16.65;;;7.32;;
84695;SDS011;74913;40.204;44.532;2024-02-28T04:26:26;17.45;;;6.93;;
84695;SDS011;74913;40.204;44.532;2024-02-28T04:28:51;15.55;;;7.22;;
84695;SDS011;74913;40.204;44.532;2024-02-28T04:31:17;19.05;;;6.32;;
84695;SDS011;74913;40.204;44.532;2024-02-28T04:33:43;19.77;;;7.45;;
84695;SDS011;74913;40.204;44.532;2024-02-28T04:36:08;20.38;;;7.57;;
84695;SDS011;74913;40.204;44.532;2024-02-28T04:38:34;19.05;;;8.07;;
84695;SDS011;74913;40.204;44.532;2024-02-28T04:40:59;20.25;;;8.43;;
84695;SDS011;74913;40.204;44.532;2024-02-28T04:43:25;22.20;;;8.95;;
84695;SDS011;74913;40.204;44.532;2024-02-28T04:45:51;26.77;;;8.80;;
84695;SDS011;74913;40.204;44.532;2024-02-28T04:48:16;19.45;;;7.30;;
84695;SDS011;74913;40.204;44.532;2024-02-28T04:50:42;19.38;;;6.00;;
84695;SDS011;74913;40.204;44.532;2024-02-28T04:53:07;27.42;;;8.85;;
84695;SDS011;74913;40.204;44.532;2024-02-28T04:55:33;21.33;;;9.45;;
84695;SDS011;74913;40.204;44.532;2024-02-28T04:57:59;20.27;;;7.88;;
84695;SDS011;74913;40.204;44.532;2024-02-28T05:00:25;20.58;;;7.57;;
84695;SDS011;74913;40.204;44.532;2024-02-28T05:02:51;19.05;;;7.03;;
84695;SDS011;74913;40.204;44.532;2024-02-28T05:05:17;23.05;;;8.13;;
84695;SDS011;74913;40.204;44.532;2024-02-28T05:07:43;19.92;;;7.38;;
84695;SDS011;74913;40.204;44.532;2024-02-28T05:10:08;23.67;;;8.57;;
84695;SDS011;74913;40.204;44.532;2024-02-28T05:12:34;17.65;;;7.55;;
84695;SDS011;74913;40.204;44.532;2024-02-28T05:15:00;23.15;;;9.52;;
84695;SDS011;74913;40.204;44.532;2024-02-28T05:17:25;26.67;;;9.88;;
84695;SDS011;74913;40.204;44.532;2024-02-28T05:19:52;17.75;;;5.88;;
84695;SDS011;74913;40.204;44.532;2024-02-28T05:22:18;17.77;;;6.72;;
84695;SDS011;74913;40.204;44.532;2024-02-28T05:24:46;14.80;;;5.20;;
84695;SDS011;74913;40.204;44.532;2024-02-28T05:27:12;14.38;;;5.38;;
84695;SDS011;74913;40.204;44.532;2024-02-28T05:29:38;13.27;;;5.85;;
84695;SDS011;74913;40.204;44.532;2024-02-28T05:32:03;21.27;;;8.35;;
84695;SDS011;74913;40.204;44.532;2024-02-28T05:34:29;21.63;;;8.50;;
84695;SDS011;74913;40.204;44.532;2024-02-28T05:36:55;18.70;;;8.13;;
84695;SDS011;74913;40.204;44.532;2024-02-28T05:39:20;24.17;;;8.82;;
84695;SDS011;74913;40.204;44.532;2024-02-28T05:41:46;15.23;;;8.30;;
84695;SDS011;74913;40.204;44.532;2024-02-28T05:44:12;24.65;;;11.27;;
84695;SDS011;74913;40.204;44.532;2024-02-28T05:46:37;29.83;;;8.68;;
84695;SDS011;74913;40.204;44.532;2024-02-28T05:49:03;21.38;;;9.65;;
84695;SDS011;74913;40.204;44.532;2024-02-28T05:51:29;14.93;;;6.50;;
84695;SDS011;74913;40.204;44.532;2024-02-28T05:53:55;22.50;;;7.80;;
84695;SDS011;74913;40.204;44.532;2024-02-28T05:56:20;24.02;;;9.52;;
84695;SDS011;74913;40.204;44.532;2024-02-28T05:58:47;26.98;;;10.20;;
84695;SDS011;74913;40.204;44.532;2024-02-28T06:01:16;16.30;;;8.82;;
84695;SDS011;74913;40.204;44.532;2024-02-28T06:03:42;23.00;;;9.18;;
84695;SDS011;74913;40.204;44.532;2024-02-28T06:06:10;18.52;;;7.75;;
84695;SDS011;74913;40.204;44.532;2024-02-28T06:08:37;15.70;;;7.82;;
84695;SDS011;74913;40.204;44.532;2024-02-28T06:11:04;24.88;;;9.63;;
84695;SDS011;74913;40.204;44.532;2024-02-28T06:13:30;18.35;;;8.68;;
84695;SDS011;74913;40.204;44.532;2024-02-28T06:15:56;25.25;;;9.13;;
84695;SDS011;74913;40.204;44.532;2024-02-28T06:18:22;19.73;;;6.50;;
84695;SDS011;74913;40.204;44.532;2024-02-28T06:20:51;20.90;;;8.05;;
84695;SDS011;74913;40.204;44.532;2024-02-28T06:23:21;16.60;;;8.63;;
84695;SDS011;74913;40.204;44.532;2024-02-28T06:25:47;22.60;;;8.27;;
84695;SDS011;74913;40.204;44.532;2024-02-28T06:28:13;16.67;;;8.35;;
84695;SDS011;74913;40.204;44.532;2024-02-28T06:30:38;17.30;;;7.55;;
84695;SDS011;74913;40.204;44.532;2024-02-28T06:33:04;26.38;;;8.30;;
84695;SDS011;74913;40.204;44.532;2024-02-28T06:35:30;24.92;;;8.93;;
84695;SDS011;74913;40.204;44.532;2024-02-28T06:37:55;18.70;;;8.50;;
84695;SDS011;74913;40.204;44.532;2024-02-28T06:40:21;26.67;;;9.43;;
84695;SDS011;74913;40.204;44.532;2024-02-28T06:42:47;18.15;;;7.65;;
84695;SDS011;74913;40.204;44.532;2024-02-28T06:45:12;19.45;;;8.85;;
84695;SDS011;74913;40.204;44.532;2024-02-28T06:47:38;14.73;;;6.78;;
84695;SDS011;74913;40.204;44.532;2024-02-28T06:50:05;18.33;;;7.40;;
84695;SDS011;74913;40.204;44.532;2024-02-28T06:52:31;20.10;;;9.52;;
84695;SDS011;74913;40.204;44.532;2024-02-28T06:54:58;18.88;;;7.57;;
84695;SDS011;74913;40.204;44.532;2024-02-28T06:57:25;20.15;;;8.73;;
84695;SDS011;74913;40.204;44.532;2024-02-28T06:59:51;17.38;;;7.28;;
84695;SDS011;74913;40.204;44.532;2024-02-28T07:02:17;22.40;;;9.13;;
84695;SDS011;74913;40.204;44.532;2024-02-28T07:04:42;24.30;;;8.85;;
84695;SDS011;74913;40.204;44.532;2024-02-28T07:07:08;25.38;;;9.55;;
84695;SDS011;74913;40.204;44.532;2024-02-28T07:09:34;23.70;;;9.68;;
84695;SDS011;74913;40.204;44.532;2024-02-28T07:11:59;23.40;;;9.25;;
84695;SDS011;74913;40.204;44.532;2024-02-28T07:14:28;18.58;;;8.73;;
84695;SDS011;74913;40.204;44.532;2024-02-28T07:16:54;19.70;;;8.90;;
84695;SDS011;74913;40.204;44.532;2024-02-28T07:19:19;20.80;;;8.27;;
84695;SDS011;74913;40.204;44.532;2024-02-28T07:21:45;19.15;;;8.93;;
84695;SDS011;74913;40.204;44.532;2024-02-28T07:24:11;17.45;;;8.57;;
84695;SDS011;74913;40.204;44.532;2024-02-28T07:26:36;17.95;;;8.23;;
84695;SDS011;74913;40.204;44.532;2024-02-28T07:29:02;19.08;;;8.32;;
84695;SDS011;74913;40.204;44.532;2024-02-28T07:31:28;21.75;;;8.88;;
84695;SDS011;74913;40.204;44.532;2024-02-28T07:33:54;20.70;;;9.20;;
84695;SDS011;74913;40.204;44.532;2024-02-28T07:36:19;22.20;;;9.55;;
84695;SDS011;74913;40.204;44.532;2024-02-28T07:38:45;21.13;;;9.05;;
84695;SDS011;74913;40.204;44.532;2024-02-28T07:41:12;22.17;;;10.25;;
84695;SDS011;74913;40.204;44.532;2024-02-28T07:43:37;18.15;;;7.65;;
84695;SDS011;74913;40.204;44.532;2024-02-28T07:46:07;14.45;;;6.75;;
84695;SDS011;74913;40.204;44.532;2024-02-28T07:48:36;21.40;;;9.05;;
84695;SDS011;74913;40.204;44.532;2024-02-28T07:51:08;19.23;;;7.13;;
84695;SDS011;74913;40.204;44.532;2024-02-28T07:53:35;16.77;;;7.32;;
84695;SDS011;74913;40.204;44.532;2024-02-28T07:56:00;19.85;;;7.70;;
84695;SDS011;74913;40.204;44.532;2024-02-28T07:58:26;20.67;;;8.90;;
84695;SDS011;74913;40.204;44.532;2024-02-28T08:00:53;17.00;;;7.20;;
84695;SDS011;74913;40.204;44.532;2024-02-28T08:03:18;20.90;;;9.60;;
84695;SDS011;74913;40.204;44.532;2024-02-28T08:05:44;26.13;;;9.75;;
84695;SDS011;74913;40.204;44.532;2024-02-28T08:08:11;23.85;;;10.18;;
84695;SDS011;74913;40.204;44.532;2024-02-28T08:10:37;19.65;;;9.98;;
84695;SDS011;74913;40.204;44.532;2024-02-28T08:13:03;19.17;;;6.57;;
84695;SDS011;74913;40.204;44.532;2024-02-28T08:15:32;20.95;;;8.52;;
84695;SDS011;74913;40.204;44.532;2024-02-28T08:17:58;25.17;;;10.98;;
84695;SDS011;74913;40.204;44.532;2024-02-28T08:20:24;23.38;;;9.38;;
84695;SDS011;74913;40.204;44.532;2024-02-28T08:22:49;17.90;;;6.88;;
84695;SDS011;74913;40.204;44.532;2024-02-28T08:25:17;18.13;;;8.85;;
84695;SDS011;74913;40.204;44.532;2024-02-28T08:27:43;20.23;;;8.95;;
84695;SDS011;74913;40.204;44.532;2024-02-28T08:30:09;21.10;;;8.40;;
84695;SDS011;74913;40.204;44.532;2024-02-28T08:32:35;16.08;;;6.75;;
84695;SDS011;74913;40.204;44.532;2024-02-28T08:35:00;19.83;;;8.57;;
84695;SDS011;74913;40.204;44.532;2024-02-28T08:37:26;18.85;;;8.25;;
84695;SDS011;74913;40.204;44.532;2024-02-28T08:39:54;19.58;;;8.55;;
84695;SDS011;74913;40.204;44.532;2024-02-28T08:42:23;13.18;;;7.13;;
84695;SDS011;74913;40.204;44.532;2024-02-28T08:44:52;19.20;;;8.50;;
84695;SDS011;74913;40.204;44.532;2024-02-28T08:47:23;23.98;;;9.05;;
84695;SDS011;74913;40.204;44.532;2024-02-28T08:49:55;24.45;;;8.43;;
84695;SDS011;74913;40.204;44.532;2024-02-28T08:52:20;20.52;;;8.75;;
84695;SDS011;74913;40.204;44.532;2024-02-28T08:54:47;21.15;;;7.70;;
84695;SDS011;74913;40.204;44.532;2024-02-28T08:57:13;15.27;;;7.78;;
84695;SDS011;74913;40.204;44.532;2024-02-28T08:59:39;19.52;;;8.05;;
84695;SDS011;74913;40.204;44.532;2024-02-28T09:02:05;17.85;;;8.48;;
84695;SDS011;74913;40.204;44.532;2024-02-28T09:04:32;21.17;;;8.65;;
84695;SDS011;74913;40.204;44.532;2024-02-28T09:06:57;20.88;;;8.02;;
84695;SDS011;74913;40.204;44.532;2024-02-28T09:09:23;19.17;;;9.13;;
84695;SDS011;74913;40.204;44.532;2024-02-28T09:11:48;14.27;;;7.20;;
84695;SDS011;74913;40.204;44.532;2024-02-28T09:14:14;17.90;;;8.02;;
84695;SDS011;74913;40.204;44.532;2024-02-28T09:16:40;20.67;;;8.57;;
84695;SDS011;74913;40.204;44.532;2024-02-28T09:19:05;19.58;;;9.82;;
84695;SDS011;74913;40.204;44.532;2024-02-28T09:21:31;15.18;;;7.75;;
84695;SDS011;74913;40.204;44.532;2024-02-28T09:23:56;15.02;;;7.80;;
84695;SDS011;74913;40.204;44.532;2024-02-28T09:26:22;10.70;;;5.75;;
84695;SDS011;74913;40.204;44.532;2024-02-28T09:28:48;16.55;;;8.50;;
84695;SDS011;74913;40.204;44.532;2024-02-28T09:31:14;17.45;;;7.65;;
84695;SDS011;74913;40.204;44.532;2024-02-28T09:33:40;16.10;;;7.80;;
84695;SDS011;74913;40.204;44.532;2024-02-28T09:36:06;15.88;;;7.40;;
84695;SDS011;74913;40.204;44.532;2024-02-28T09:38:32;19.98;;;8.45;;
84695;SDS011;74913;40.204;44.532;2024-02-28T09:41:00;19.77;;;7.72;;
84695;SDS011;74913;40.204;44.532;2024-02-28T09:43:30;18.23;;;8.32;;
84695;SDS011;74913;40.204;44.532;2024-02-28T09:46:03;13.65;;;6.30;;
84695;SDS011;74913;40.204;44.532;2024-02-28T09:48:29;13.95;;;7.22;;
84695;SDS011;74913;40.204;44.532;2024-02-28T09:50:59;14.35;;;7.13;;
84695;SDS011;74913;40.204;44.532;2024-02-28T09:53:26;17.08;;;7.78;;
84695;SDS011;74913;40.204;44.532;2024-02-28T09:58:18;15.27;;;7.90;;
84695;SDS011;74913;40.204;44.532;2024-02-28T10:00:46;16.08;;;7.80;;
84695;SDS011;74913;40.204;44.532;2024-02-28T10:03:18;20.13;;;8.25;;
84695;SDS011;74913;40.204;44.532;2024-02-28T10:05:45;16.00;;;7.80;;
84695;SDS011;74913;40.204;44.532;2024-02-28T10:08:12;21.95;;;8.80;;
84695;SDS011;74913;40.204;44.532;2024-02-28T10:10:48;19.20;;;8.80;;
84695;SDS011;74913;40.204;44.532;2024-02-28T10:13:17;17.08;;;6.93;;
84695;SDS011;74913;40.204;44.532;2024-02-28T10:15:43;15.90;;;9.23;;
84695;SDS011;74913;40.204;44.532;2024-02-28T10:18:09;17.42;;;8.35;;
84695;SDS011;74913;40.204;44.532;2024-02-28T10:20:35;16.10;;;7.80;;
84695;SDS011;74913;40.204;44.532;2024-02-28T10:23:04;20.45;;;9.25;;
84695;SDS011;74913;40.204;44.532;2024-02-28T10:25:46;23.38;;;9.57;;
84695;SDS011;74913;40.204;44.532;2024-02-28T10:28:12;23.55;;;10.35;;
84695;SDS011;74913;40.204;44.532;2024-02-28T10:30:40;17.95;;;8.52;;
84695;SDS011;74913;40.204;44.532;2024-02-28T10:35:36;19.98;;;7.57;;
84695;SDS011;74913;40.204;44.532;2024-02-28T10:40:29;16.73;;;6.60;;
84695;SDS011;74913;40.204;44.532;2024-02-28T10:42:54;21.20;;;8.25;;
84695;SDS011;74913;40.204;44.532;2024-02-28T10:45:23;21.05;;;11.10;;
84695;SDS011;74913;40.204;44.532;2024-02-28T10:47:54;38.75;;;14.80;;
84695;SDS011;74913;40.204;44.532;2024-02-28T10:50:20;22.90;;;11.60;;
84695;SDS011;74913;40.204;44.532;2024-02-28T10:52:46;17.17;;;8.50;;
84695;SDS011;74913;40.204;44.532;2024-02-28T10:55:18;14.77;;;8.40;;
84695;SDS011;74913;40.204;44.532;2024-02-28T10:57:52;17.60;;;8.25;;
84695;SDS011;74913;40.204;44.532;2024-02-28T11:00:24;13.02;;;7.75;;
84695;SDS011;74913;40.204;44.532;2024-02-28T11:02:50;16.52;;;7.93;;
84695;SDS011;74913;40.204;44.532;2024-02-28T11:05:15;18.67;;;7.60;;
84695;SDS011;74913;40.204;44.532;2024-02-28T11:07:41;18.63;;;9.30;;
84695;SDS011;74913;40.204;44.532;2024-02-28T11:12:35;12.13;;;6.25;;
84695;SDS011;74913;40.204;44.532;2024-02-28T11:15:02;24.17;;;9.43;;
84695;SDS011;74913;40.204;44.532;2024-02-28T11:17:32;16.88;;;7.88;;
84695;SDS011;74913;40.204;44.532;2024-02-28T11:19:58;19.67;;;8.13;;
84695;SDS011;74913;40.204;44.532;2024-02-28T11:22:27;11.10;;;5.85;;
84695;SDS011;74913;40.204;44.532;2024-02-28T11:24:53;19.85;;;6.93;;
84695;SDS011;74913;40.204;44.532;2024-02-28T11:27:20;15.68;;;8.18;;
84695;SDS011;74913;40.204;44.532;2024-02-28T11:29:46;21.33;;;8.38;;
84695;SDS011;74913;40.204;44.532;2024-02-28T11:32:12;17.90;;;9.48;;
84695;SDS011;74913;40.204;44.532;2024-02-28T11:34:39;18.73;;;10.18;;
84695;SDS011;74913;40.204;44.532;2024-02-28T11:37:10;15.98;;;8.85;;
84695;SDS011;74913;40.204;44.532;2024-02-28T11:39:35;19.60;;;8.38;;
84695;SDS011;74913;40.204;44.532;2024-02-28T11:42:14;15.77;;;7.28;;
84695;SDS011;74913;40.204;44.532;2024-02-28T11:44:41;16.67;;;8.20;;
84695;SDS011;74913;40.204;44.532;2024-02-28T11:47:08;17.02;;;8.75;;
84695;SDS011;74913;40.204;44.532;2024-02-28T11:49:37;20.42;;;7.88;;
84695;SDS011;74913;40.204;44.532;2024-02-28T11:52:06;18.58;;;8.35;;
84695;SDS011;74913;40.204;44.532;2024-02-28T11:54:32;15.30;;;7.88;;
84695;SDS011;74913;40.204;44.532;2024-02-28T11:56:58;10.48;;;5.50;;
84695;SDS011;74913;40.204;44.532;2024-02-28T11:59:24;23.55;;;8.77;;
84695;SDS011;74913;40.204;44.532;2024-02-28T12:01:49;13.95;;;6.72;;
84695;SDS011;74913;40.204;44.532;2024-02-28T12:04:17;18.98;;;7.97;;
84695;SDS011;74913;40.204;44.532;2024-02-28T12:06:42;23.45;;;8.80;;
84695;SDS011;74913;40.204;44.532;2024-02-28T12:09:09;15.45;;;6.35;;
84695;SDS011;74913;40.204;44.532;2024-02-28T12:11:39;22.13;;;9.73;;
84695;SDS011;74913;40.204;44.532;2024-02-28T12:14:08;26.50;;;9.80;;
84695;SDS011;74913;40.204;44.532;2024-02-28T12:16:38;17.48;;;8.70;;
84695;SDS011;74913;40.204;44.532;2024-02-28T12:19:11;14.38;;;6.93;;
84695;SDS011;74913;40.204;44.532;2024-02-28T12:21:38;18.45;;;8.25;;
84695;SDS011;74913;40.204;44.532;2024-02-28T12:24:08;18.42;;;8.05;;
84695;SDS011;74913;40.204;44.532;2024-02-28T12:26:34;14.80;;;8.02;;
84695;SDS011;74913;40.204;44.532;2024-02-28T12:29:01;16.63;;;7.70;;
84695;SDS011;74913;40.204;44.532;2024-02-28T12:31:27;15.95;;;8.30;;
84695;SDS011;74913;40.204;44.532;2024-02-28T12:33:53;18.17;;;8.48;;
84695;SDS011;74913;40.204;44.532;2024-02-28T12:36:19;23.45;;;9.95;;
84695;SDS011;74913;40.204;44.532;2024-02-28T12:38:45;20.90;;;9.02;;
84695;SDS011;74913;40.204;44.532;2024-02-28T12:41:10;17.90;;;8.52;;
84695;SDS011;74913;40.204;44.532;2024-02-28T12:43:36;18.92;;;9.48;;
84695;SDS011;74913;40.204;44.532;2024-02-28T12:46:04;22.65;;;10.00;;
84695;SDS011;74913;40.204;44.532;2024-02-28T12:50:56;18.15;;;9.20;;
84695;SDS011;74913;40.204;44.532;2024-02-28T12:55:48;20.73;;;10.65;;
84695;SDS011;74913;40.204;44.532;2024-02-28T12:58:14;23.20;;;10.38;;
84695;SDS011;74913;40.204;44.532;2024-02-28T13:00:39;20.58;;;9.15;;
84695;SDS011;74913;40.204;44.532;2024-02-28T13:03:05;19.05;;;9.32;;
84695;SDS011;74913;40.204;44.532;2024-02-28T13:05:31;20.92;;;9.45;;
84695;SDS011;74913;40.204;44.532;2024-02-28T13:07:57;15.98;;;7.88;;
84695;SDS011;74913;40.204;44.532;2024-02-28T13:10:23;17.73;;;9.82;;
84695;SDS011;74913;40.204;44.532;2024-02-28T13:12:48;28.95;;;10.73;;
84695;SDS011;74913;40.204;44.532;2024-02-28T13:15:14;22.55;;;9.82;;
84695;SDS011;74913;40.204;44.532;2024-02-28T13:17:40;20.73;;;9.88;;
84695;SDS011;74913;40.204;44.532;2024-02-28T13:20:08;26.27;;;10.63;;
84695;SDS011;74913;40.204;44.532;2024-02-28T13:22:34;24.13;;;8.88;;
84695;SDS011;74913;40.204;44.532;2024-02-28T13:24:59;22.63;;;9.73;;
84695;SDS011;74913;40.204;44.532;2024-02-28T13:27:25;16.67;;;9.18;;
84695;SDS011;74913;40.204;44.532;2024-02-28T13:29:51;22.83;;;10.73;;
84695;SDS011;74913;40.204;44.532;2024-02-28T13:32:17;21.48;;;8.90;;
84695;SDS011;74913;40.204;44.532;2024-02-28T13:34:43;17.17;;;8.85;;
84695;SDS011;74913;40.204;44.532;2024-02-28T13:37:08;24.70;;;10.18;;
84695;SDS011;74913;40.204;44.532;2024-02-28T13:39:34;24.20;;;10.02;;
84695;SDS011;74913;40.204;44.532;2024-02-28T13:42:00;31.00;;;11.02;;
84695;SDS011;74913;40.204;44.532;2024-02-28T13:44:28;27.95;;;10.65;;
84695;SDS011;74913;40.204;44.532;2024-02-28T13:46:54;24.25;;;9.65;;
84695;SDS011;74913;40.204;44.532;2024-02-28T13:49:19;18.70;;;9.07;;
84695;SDS011;74913;40.204;44.532;2024-02-28T13:51:45;16.10;;;9.43;;
84695;SDS011;74913;40.204;44.532;2024-02-28T13:54:13;19.67;;;9.15;;
84695;SDS011;74913;40.204;44.532;2024-02-28T13:56:38;18.50;;;8.85;;
84695;SDS011;74913;40.204;44.532;2024-02-28T13:59:04;18.73;;;8.25;;
84695;SDS011;74913;40.204;44.532;2024-02-28T14:01:31;17.42;;;8.07;;
84695;SDS011;74913;40.204;44.532;2024-02-28T14:03:57;17.02;;;8.68;;
84695;SDS011;74913;40.204;44.532;2024-02-28T14:06:23;19.52;;;9.77;;
84695;SDS011;74913;40.204;44.532;2024-02-28T14:08:48;20.05;;;10.52;;
84695;SDS011;74913;40.204;44.532;2024-02-28T14:11:16;20.67;;;8.63;;
84695;SDS011;74913;40.204;44.532;2024-02-28T14:13:42;24.50;;;11.60;;
84695;SDS011;74913;40.204;44.532;2024-02-28T14:16:07;19.05;;;9.25;;
84695;SDS011;74913;40.204;44.532;2024-02-28T14:18:33;39.30;;;14.30;;
84695;SDS011;74913;40.204;44.532;2024-02-28T14:21:00;38.22;;;15.80;;
84695;SDS011;74913;40.204;44.532;2024-02-28T14:23:27;29.40;;;12.73;;
84695;SDS011;74913;40.204;44.532;2024-02-28T14:25:53;30.38;;;13.90;;
84695;SDS011;74913;40.204;44.532;2024-02-28T14:28:18;23.60;;;11.82;;
84695;SDS011;74913;40.204;44.532;2024-02-28T14:30:44;18.45;;;8.52;;
84695;SDS011;74913;40.204;44.532;2024-02-28T14:33:11;22.30;;;9.40;;